sensor_id;sensor_type;location;lat;lon;timestamp;pressure;altitude;pressure_sealevel;temperature;humidity
62237;BME280;69163;48.778;2.308;2024-02-16T00:02:04;100168.28;;;20.68;34.09
62237;BME280;69163;48.778;2.308;2024-02-16T00:04:28;100168.00;;;21.14;34.06
62237;BME280;69163;48.778;2.308;2024-02-16T00:06:54;100166.19;;;21.14;34.02
62237;BME280;69163;48.778;2.308;2024-02-16T00:09:20;100161.40;;;20.85;34.03
62237;BME280;69163;48.778;2.308;2024-02-16T00:11:45;100163.90;;;21.04;34.04
62237;BME280;69163;48.778;2.308;2024-02-16T00:14:10;100171.31;;;20.58;33.92
62237;BME280;69163;48.778;2.308;2024-02-16T00:16:35;100163.53;;;21.03;33.99
62237;BME280;69163;48.778;2.308;2024-02-16T00:19:00;100164.79;;;20.55;33.94
62237;BME280;69163;48.778;2.308;2024-02-16T00:21:27;100161.75;;;21.01;33.94
62237;BME280;69163;48.778;2.308;2024-02-16T00:23:51;100160.49;;;20.95;33.97
62237;BME280;69163;48.778;2.308;2024-02-16T00:26:16;100163.93;;;20.94;33.96
62237;BME280;69163;48.778;2.308;2024-02-16T00:28:41;100161.60;;;20.95;33.91
62237;BME280;69163;48.778;2.308;2024-02-16T00:31:06;100160.29;;;20.69;33.91
62237;BME280;69163;48.778;2.308;2024-02-16T00:33:31;100164.38;;;20.92;33.89
62237;BME280;69163;48.778;2.308;2024-02-16T00:35:57;100165.56;;;20.89;33.89
62237;BME280;69163;48.778;2.308;2024-02-16T00:38:22;100162.71;;;20.89;33.87
62237;BME280;69163;48.778;2.308;2024-02-16T00:40:47;100172.70;;;20.83;33.89
62237;BME280;69163;48.778;2.308;2024-02-16T00:43:13;100168.85;;;20.36;33.89
62237;BME280;69163;48.778;2.308;2024-02-16T00:45:38;100183.39;;;20.79;33.88
62237;BME280;69163;48.778;2.308;2024-02-16T00:48:04;100173.47;;;20.76;33.90
62237;BME280;69163;48.778;2.308;2024-02-16T00:50:28;100178.49;;;20.71;33.91
62237;BME280;69163;48.778;2.308;2024-02-16T00:52:54;100180.10;;;20.69;33.89
62237;BME280;69163;48.778;2.308;2024-02-16T00:55:19;100181.10;;;20.70;33.89
62237;BME280;69163;48.778;2.308;2024-02-16T00:57:44;100187.10;;;20.71;33.86
62237;BME280;69163;48.778;2.308;2024-02-16T01:00:11;100188.12;;;20.64;33.89
62237;BME280;69163;48.778;2.308;2024-02-16T01:02:34;100188.32;;;20.16;33.88
62237;BME280;69163;48.778;2.308;2024-02-16T01:05:00;100187.94;;;20.40;33.85
62237;BME280;69163;48.778;2.308;2024-02-16T01:07:25;100187.37;;;20.62;33.83
62237;BME280;69163;48.778;2.308;2024-02-16T01:09:51;100189.34;;;20.58;33.87
62237;BME280;69163;48.778;2.308;2024-02-16T01:12:16;100188.91;;;20.58;33.84
62237;BME280;69163;48.778;2.308;2024-02-16T01:14:40;100188.73;;;20.36;33.79
62237;BME280;69163;48.778;2.308;2024-02-16T01:17:06;100187.49;;;20.32;33.81
62237;BME280;69163;48.778;2.308;2024-02-16T01:19:31;100183.72;;;20.57;33.79
62237;BME280;69163;48.778;2.308;2024-02-16T01:21:57;100185.03;;;20.50;33.85
62237;BME280;69163;48.778;2.308;2024-02-16T01:24:22;100186.91;;;20.24;33.84
62237;BME280;69163;48.778;2.308;2024-02-16T01:26:47;100187.41;;;20.20;33.86
62237;BME280;69163;48.778;2.308;2024-02-16T01:29:12;100189.75;;;19.96;33.82
62237;BME280;69163;48.778;2.308;2024-02-16T01:31:37;100193.49;;;20.40;33.86
62237;BME280;69163;48.778;2.308;2024-02-16T01:34:04;100188.43;;;20.17;33.82
62237;BME280;69163;48.778;2.308;2024-02-16T01:36:28;100184.63;;;20.42;33.79
62237;BME280;69163;48.778;2.308;2024-02-16T01:38:53;100187.07;;;20.36;33.84
62237;BME280;69163;48.778;2.308;2024-02-16T01:41:18;100187.14;;;20.33;33.89
62237;BME280;69163;48.778;2.308;2024-02-16T01:43:43;100194.80;;;20.35;33.84
62237;BME280;69163;48.778;2.308;2024-02-16T01:46:09;100193.35;;;20.32;33.84
62237;BME280;69163;48.778;2.308;2024-02-16T01:48:34;100190.90;;;20.29;33.87
62237;BME280;69163;48.778;2.308;2024-02-16T01:51:00;100192.87;;;20.25;33.86
62237;BME280;69163;48.778;2.308;2024-02-16T01:53:25;100193.76;;;19.99;33.87
62237;BME280;69163;48.778;2.308;2024-02-16T01:55:50;100195.40;;;20.00;33.86
62237;BME280;69163;48.778;2.308;2024-02-16T01:58:15;100187.79;;;20.49;33.81
62237;BME280;69163;48.778;2.308;2024-02-16T02:00:41;100192.77;;;20.22;33.84
62237;BME280;69163;48.778;2.308;2024-02-16T02:03:06;100192.66;;;20.26;33.79
62237;BME280;69163;48.778;2.308;2024-02-16T02:05:32;100193.97;;;20.25;33.77
62237;BME280;69163;48.778;2.308;2024-02-16T02:07:56;100195.27;;;20.23;33.74
62237;BME280;69163;48.778;2.308;2024-02-16T02:10:21;100199.17;;;20.50;33.70
62237;BME280;69163;48.778;2.308;2024-02-16T02:12:47;100199.92;;;20.45;33.76
62237;BME280;69163;48.778;2.308;2024-02-16T02:15:12;100200.15;;;20.16;33.78
62237;BME280;69163;48.778;2.308;2024-02-16T02:17:37;100200.40;;;20.14;33.75
62237;BME280;69163;48.778;2.308;2024-02-16T02:20:04;100195.81;;;20.07;33.81
62237;BME280;69163;48.778;2.308;2024-02-16T02:22:28;100198.04;;;20.00;33.89
62237;BME280;69163;48.778;2.308;2024-02-16T02:24:53;100199.08;;;20.46;33.92
62237;BME280;69163;48.778;2.308;2024-02-16T02:27:18;100199.14;;;20.45;33.87
62237;BME280;69163;48.778;2.308;2024-02-16T02:29:43;100200.34;;;19.94;33.90
62237;BME280;69163;48.778;2.308;2024-02-16T02:32:09;100201.00;;;19.95;33.86
62237;BME280;69163;48.778;2.308;2024-02-16T02:34:34;100201.13;;;19.98;33.80
62237;BME280;69163;48.778;2.308;2024-02-16T02:36:59;100206.18;;;19.93;33.80
62237;BME280;69163;48.778;2.308;2024-02-16T02:39:24;100202.61;;;20.17;33.88
62237;BME280;69163;48.778;2.308;2024-02-16T02:41:50;100200.66;;;20.14;33.87
62237;BME280;69163;48.778;2.308;2024-02-16T02:44:15;100206.16;;;19.90;33.86
62237;BME280;69163;48.778;2.308;2024-02-16T02:46:41;100206.18;;;20.12;33.88
62237;BME280;69163;48.778;2.308;2024-02-16T02:49:05;100203.26;;;19.88;33.85
62237;BME280;69163;48.778;2.308;2024-02-16T02:51:31;100201.38;;;19.87;33.89
62237;BME280;69163;48.778;2.308;2024-02-16T02:53:55;100201.25;;;19.85;33.85
62237;BME280;69163;48.778;2.308;2024-02-16T02:56:20;100203.84;;;20.08;33.87
62237;BME280;69163;48.778;2.308;2024-02-16T02:58:47;100204.20;;;19.83;33.90
62237;BME280;69163;48.778;2.308;2024-02-16T03:01:12;100209.45;;;20.03;33.90
62237;BME280;69163;48.778;2.308;2024-02-16T03:03:37;100208.09;;;20.02;33.93
62237;BME280;69163;48.778;2.308;2024-02-16T03:06:03;100210.93;;;19.75;33.92
62237;BME280;69163;48.778;2.308;2024-02-16T03:08:27;100212.85;;;20.01;33.92
62237;BME280;69163;48.778;2.308;2024-02-16T03:10:53;100212.83;;;20.21;33.96
62237;BME280;69163;48.778;2.308;2024-02-16T03:13:18;100213.19;;;19.95;33.98
62237;BME280;69163;48.778;2.308;2024-02-16T03:15:43;100219.87;;;19.72;33.96
62237;BME280;69163;48.778;2.308;2024-02-16T03:18:08;100217.22;;;19.69;33.96
62237;BME280;69163;48.778;2.308;2024-02-16T03:20:34;100219.82;;;19.67;33.99
62237;BME280;69163;48.778;2.308;2024-02-16T03:22:58;100216.25;;;19.65;33.98
62237;BME280;69163;48.778;2.308;2024-02-16T03:25:23;100219.03;;;19.89;33.97
62237;BME280;69163;48.778;2.308;2024-02-16T03:27:49;100225.25;;;19.86;33.99
62237;BME280;69163;48.778;2.308;2024-02-16T03:30:15;100228.34;;;20.12;33.99
62237;BME280;69163;48.778;2.308;2024-02-16T03:32:40;100233.83;;;20.09;34.02
62237;BME280;69163;48.778;2.308;2024-02-16T03:35:07;100236.71;;;19.61;33.99
62237;BME280;69163;48.778;2.308;2024-02-16T03:37:30;100237.10;;;20.11;33.97
62237;BME280;69163;48.778;2.308;2024-02-16T03:39:55;100244.79;;;20.08;34.00
62237;BME280;69163;48.778;2.308;2024-02-16T03:42:21;100238.57;;;19.81;34.03
62237;BME280;69163;48.778;2.308;2024-02-16T03:44:46;100241.91;;;19.78;34.03
62237;BME280;69163;48.778;2.308;2024-02-16T03:47:11;100244.28;;;19.55;34.04
62237;BME280;69163;48.778;2.308;2024-02-16T03:49:37;100247.12;;;20.02;34.05
62237;BME280;69163;48.778;2.308;2024-02-16T03:52:02;100252.26;;;19.73;34.10
62237;BME280;69163;48.778;2.308;2024-02-16T03:54:27;100261.27;;;19.97;34.10
62237;BME280;69163;48.778;2.308;2024-02-16T03:56:53;100267.02;;;19.98;34.06
62237;BME280;69163;48.778;2.308;2024-02-16T03:59:17;100267.10;;;19.96;34.09
62237;BME280;69163;48.778;2.308;2024-02-16T04:01:43;100265.95;;;19.95;34.09
62237;BME280;69163;48.778;2.308;2024-02-16T04:04:08;100264.60;;;19.72;34.07
62237;BME280;69163;48.778;2.308;2024-02-16T04:06:33;100264.85;;;19.45;34.09
62237;BME280;69163;48.778;2.308;2024-02-16T04:08:58;100259.28;;;19.95;34.04
62237;BME280;69163;48.778;2.308;2024-02-16T04:11:24;100262.03;;;19.94;34.07
62237;BME280;69163;48.778;2.308;2024-02-16T04:13:49;100268.88;;;19.46;34.06
62237;BME280;69163;48.778;2.308;2024-02-16T04:16:14;100273.33;;;19.69;34.06
62237;BME280;69163;48.778;2.308;2024-02-16T04:18:39;100276.94;;;19.69;34.07
62237;BME280;69163;48.778;2.308;2024-02-16T04:21:04;100273.98;;;19.39;34.13
62237;BME280;69163;48.778;2.308;2024-02-16T04:23:30;100280.94;;;19.65;34.10
62237;BME280;69163;48.778;2.308;2024-02-16T04:25:56;100285.91;;;19.86;34.13
62237;BME280;69163;48.778;2.308;2024-02-16T04:28:20;100293.54;;;19.60;34.17
62237;BME280;69163;48.778;2.308;2024-02-16T04:30:46;100303.77;;;19.62;34.12
62237;BME280;69163;48.778;2.308;2024-02-16T04:33:11;100308.58;;;19.58;34.15
62237;BME280;69163;48.778;2.308;2024-02-16T04:35:36;100310.45;;;19.34;34.16
62237;BME280;69163;48.778;2.308;2024-02-16T04:38:01;100313.80;;;19.83;34.13
62237;BME280;69163;48.778;2.308;2024-02-16T04:40:27;100320.64;;;19.81;34.16
62237;BME280;69163;48.778;2.308;2024-02-16T04:42:52;100324.58;;;19.56;34.17
62237;BME280;69163;48.778;2.308;2024-02-16T04:45:17;100327.48;;;19.51;34.19
62237;BME280;69163;48.778;2.308;2024-02-16T04:47:42;100327.06;;;19.55;34.13
62237;BME280;69163;48.778;2.308;2024-02-16T04:50:08;100330.55;;;19.78;34.14
62237;BME280;69163;48.778;2.308;2024-02-16T04:52:33;100340.51;;;19.58;34.09
62237;BME280;69163;48.778;2.308;2024-02-16T04:54:58;100344.96;;;19.29;34.16
62237;BME280;69163;48.778;2.308;2024-02-16T04:57:23;100346.77;;;19.55;34.15
62237;BME280;69163;48.778;2.308;2024-02-16T04:59:48;100348.28;;;19.78;34.14
62237;BME280;69163;48.778;2.308;2024-02-16T05:02:14;100346.34;;;19.77;34.12
62237;BME280;69163;48.778;2.308;2024-02-16T05:04:39;100354.89;;;19.56;34.09
62237;BME280;69163;48.778;2.308;2024-02-16T05:07:05;100360.99;;;19.78;34.07
62237;BME280;69163;48.778;2.308;2024-02-16T05:09:32;100362.53;;;19.78;34.09
62237;BME280;69163;48.778;2.308;2024-02-16T05:11:54;100365.96;;;19.76;34.11
62237;BME280;69163;48.778;2.308;2024-02-16T05:14:19;100364.59;;;19.77;34.10
62237;BME280;69163;48.778;2.308;2024-02-16T05:16:45;100367.66;;;19.52;34.07
62237;BME280;69163;48.778;2.308;2024-02-16T05:19:10;100371.57;;;19.53;34.09
62237;BME280;69163;48.778;2.308;2024-02-16T05:21:35;100369.31;;;19.79;34.06
62237;BME280;69163;48.778;2.308;2024-02-16T05:24:01;100375.03;;;19.75;34.08
62237;BME280;69163;48.778;2.308;2024-02-16T05:26:26;100376.24;;;19.26;34.09
62237;BME280;69163;48.778;2.308;2024-02-16T05:28:51;100379.10;;;19.52;34.07
62237;BME280;69163;48.778;2.308;2024-02-16T05:31:17;100373.67;;;19.74;34.09
62237;BME280;69163;48.778;2.308;2024-02-16T05:33:41;100380.36;;;19.72;34.12
62237;BME280;69163;48.778;2.308;2024-02-16T05:36:08;100391.79;;;19.24;34.09
62237;BME280;69163;48.778;2.308;2024-02-16T05:38:32;100389.78;;;19.73;34.08
62237;BME280;69163;48.778;2.308;2024-02-16T05:40:57;100403.35;;;19.47;34.12
62237;BME280;69163;48.778;2.308;2024-02-16T05:43:22;100403.87;;;19.70;34.13
62237;BME280;69163;48.778;2.308;2024-02-16T05:45:48;100407.12;;;19.72;34.10
62237;BME280;69163;48.778;2.308;2024-02-16T05:48:14;100409.59;;;19.67;34.14
62237;BME280;69163;48.778;2.308;2024-02-16T05:50:38;100409.08;;;19.67;34.14
62237;BME280;69163;48.778;2.308;2024-02-16T05:53:04;100409.36;;;19.62;34.19
62237;BME280;69163;48.778;2.308;2024-02-16T05:55:29;100413.58;;;19.38;34.20
62237;BME280;69163;48.778;2.308;2024-02-16T05:57:54;100413.33;;;19.61;34.21
62237;BME280;69163;48.778;2.308;2024-02-16T06:00:19;100416.28;;;19.12;34.24
62237;BME280;69163;48.778;2.308;2024-02-16T06:02:44;100420.69;;;19.59;34.24
62237;BME280;69163;48.778;2.308;2024-02-16T06:05:10;100419.70;;;19.58;34.25
62237;BME280;69163;48.778;2.308;2024-02-16T06:07:35;100423.67;;;19.61;34.25
62237;BME280;69163;48.778;2.308;2024-02-16T06:10:00;100426.70;;;19.55;34.30
62237;BME280;69163;48.778;2.308;2024-02-16T06:12:26;100424.66;;;19.02;34.40
62237;BME280;69163;48.778;2.308;2024-02-16T06:14:51;100437.47;;;19.50;34.39
62237;BME280;69163;48.778;2.308;2024-02-16T06:17:16;100444.89;;;19.26;34.40
62237;BME280;69163;48.778;2.308;2024-02-16T06:19:41;100446.87;;;19.97;34.37
62237;BME280;69163;48.778;2.308;2024-02-16T06:22:07;100452.84;;;19.25;34.35
62237;BME280;69163;48.778;2.308;2024-02-16T06:24:32;100461.06;;;19.49;34.34
62237;BME280;69163;48.778;2.308;2024-02-16T06:26:57;100466.01;;;19.50;34.34
62237;BME280;69163;48.778;2.308;2024-02-16T06:29:22;100475.28;;;19.26;34.30
62237;BME280;69163;48.778;2.308;2024-02-16T06:31:47;100474.23;;;19.25;34.33
62237;BME280;69163;48.778;2.308;2024-02-16T06:34:13;100475.96;;;19.23;34.40
62237;BME280;69163;48.778;2.308;2024-02-16T06:36:38;100475.82;;;19.47;34.40
62237;BME280;69163;48.778;2.308;2024-02-16T06:39:04;100481.40;;;19.21;34.44
62237;BME280;69163;48.778;2.308;2024-02-16T06:41:28;100477.19;;;19.66;34.44
62237;BME280;69163;48.778;2.308;2024-02-16T06:43:53;100483.89;;;19.43;34.42
62237;BME280;69163;48.778;2.308;2024-02-16T06:46:19;100490.49;;;19.49;34.37
62237;BME280;69163;48.778;2.308;2024-02-16T06:48:44;100496.75;;;19.47;34.39
62237;BME280;69163;48.778;2.308;2024-02-16T06:51:09;100492.25;;;19.18;34.43
62237;BME280;69163;48.778;2.308;2024-02-16T06:53:34;100500.31;;;19.40;34.46
62237;BME280;69163;48.778;2.308;2024-02-16T06:56:00;100503.62;;;19.37;34.51
62237;BME280;69163;48.778;2.308;2024-02-16T06:58:25;100507.48;;;19.38;34.50
62237;BME280;69163;48.778;2.308;2024-02-16T07:00:51;100507.49;;;19.38;34.59
62237;BME280;69163;48.778;2.308;2024-02-16T07:03:15;100507.27;;;19.39;34.47
62237;BME280;69163;48.778;2.308;2024-02-16T07:05:41;100509.61;;;19.41;34.44
62237;BME280;69163;48.778;2.308;2024-02-16T07:08:07;100514.95;;;19.14;34.47
62237;BME280;69163;48.778;2.308;2024-02-16T07:10:31;100518.72;;;19.65;34.45
62237;BME280;69163;48.778;2.308;2024-02-16T07:12:57;100527.46;;;19.40;34.46
62237;BME280;69163;48.778;2.308;2024-02-16T07:15:22;100536.81;;;19.39;34.48
62237;BME280;69163;48.778;2.308;2024-02-16T07:17:47;100530.33;;;19.32;34.54
62237;BME280;69163;48.778;2.308;2024-02-16T07:20:13;100532.52;;;19.09;34.54
62237;BME280;69163;48.778;2.308;2024-02-16T07:22:37;100538.95;;;19.33;34.51
62237;BME280;69163;48.778;2.308;2024-02-16T07:25:04;100545.52;;;19.35;34.53
62237;BME280;69163;48.778;2.308;2024-02-16T07:27:28;100547.29;;;19.35;34.51
62237;BME280;69163;48.778;2.308;2024-02-16T07:29:53;100553.37;;;19.34;34.55
62237;BME280;69163;48.778;2.308;2024-02-16T07:32:18;100560.95;;;19.33;34.55
62237;BME280;69163;48.778;2.308;2024-02-16T07:34:46;100567.95;;;19.31;34.57
62237;BME280;69163;48.778;2.308;2024-02-16T07:37:09;100573.16;;;19.08;34.56
62237;BME280;69163;48.778;2.308;2024-02-16T07:39:34;100577.79;;;19.35;34.52
62237;BME280;69163;48.778;2.308;2024-02-16T07:41:59;100580.41;;;19.32;34.56
62237;BME280;69163;48.778;2.308;2024-02-16T07:44:25;100585.39;;;19.83;34.52
62237;BME280;69163;48.778;2.308;2024-02-16T07:46:50;100587.63;;;19.32;34.55
62237;BME280;69163;48.778;2.308;2024-02-16T07:49:15;100595.25;;;19.32;34.55
62237;BME280;69163;48.778;2.308;2024-02-16T07:51:40;100601.04;;;19.32;34.57
62237;BME280;69163;48.778;2.308;2024-02-16T07:54:07;100603.95;;;19.31;34.58
62237;BME280;69163;48.778;2.308;2024-02-16T07:56:31;100605.97;;;19.31;34.58
62237;BME280;69163;48.778;2.308;2024-02-16T07:58:56;100608.62;;;19.31;34.57
62237;BME280;69163;48.778;2.308;2024-02-16T08:01:21;100615.13;;;19.30;34.57
62237;BME280;69163;48.778;2.308;2024-02-16T08:03:46;100619.77;;;19.34;34.54
62237;BME280;69163;48.778;2.308;2024-02-16T08:06:12;100622.76;;;19.30;34.58
62237;BME280;69163;48.778;2.308;2024-02-16T08:08:37;100618.40;;;19.32;34.56
62237;BME280;69163;48.778;2.308;2024-02-16T08:11:03;100620.17;;;19.33;34.51
62237;BME280;69163;48.778;2.308;2024-02-16T08:13:27;100622.46;;;19.29;34.56
62237;BME280;69163;48.778;2.308;2024-02-16T08:15:53;100619.94;;;19.36;34.50
62237;BME280;69163;48.778;2.308;2024-02-16T08:18:18;100623.21;;;19.34;34.51
62237;BME280;69163;48.778;2.308;2024-02-16T08:20:43;100623.10;;;19.56;34.52
62237;BME280;69163;48.778;2.308;2024-02-16T08:23:08;100630.47;;;19.32;34.51
62237;BME280;69163;48.778;2.308;2024-02-16T08:25:34;100629.46;;;19.29;34.54
62237;BME280;69163;48.778;2.308;2024-02-16T08:27:59;100633.52;;;19.31;34.52
62237;BME280;69163;48.778;2.308;2024-02-16T08:30:24;100637.54;;;19.09;34.49
62237;BME280;69163;48.778;2.308;2024-02-16T08:32:50;100639.62;;;19.30;34.52
62237;BME280;69163;48.778;2.308;2024-02-16T08:35:15;100650.48;;;19.07;34.52
62237;BME280;69163;48.778;2.308;2024-02-16T08:37:39;100650.38;;;19.27;34.58
62237;BME280;69163;48.778;2.308;2024-02-16T08:40:06;100655.52;;;19.06;34.53
62237;BME280;69163;48.778;2.308;2024-02-16T08:42:30;100654.49;;;19.23;34.60
62237;BME280;69163;48.778;2.308;2024-02-16T08:44:55;100662.37;;;19.06;34.86
62237;BME280;69163;48.778;2.308;2024-02-16T08:47:21;100661.01;;;19.27;37.17
62237;BME280;69163;48.778;2.308;2024-02-16T08:49:47;100670.21;;;19.13;37.97
62237;BME280;69163;48.778;2.308;2024-02-16T08:52:11;100671.97;;;18.91;38.31
62237;BME280;69163;48.778;2.308;2024-02-16T08:54:36;100675.31;;;18.96;38.46
62237;BME280;69163;48.778;2.308;2024-02-16T08:57:02;100682.96;;;18.75;38.61
62237;BME280;69163;48.778;2.308;2024-02-16T08:59:27;100686.96;;;18.91;38.84
62237;BME280;69163;48.778;2.308;2024-02-16T09:01:52;100693.94;;;18.91;38.84
62237;BME280;69163;48.778;2.308;2024-02-16T09:04:18;100694.72;;;18.96;38.94
62237;BME280;69163;48.778;2.308;2024-02-16T09:06:42;100697.10;;;19.00;39.05
62237;BME280;69163;48.778;2.308;2024-02-16T09:09:07;100697.82;;;18.77;39.19
62237;BME280;69163;48.778;2.308;2024-02-16T09:11:33;100702.10;;;19.54;39.23
62237;BME280;69163;48.778;2.308;2024-02-16T09:13:59;100702.07;;;19.10;39.41
62237;BME280;69163;48.778;2.308;2024-02-16T09:16:24;100703.05;;;19.07;39.67
62237;BME280;69163;48.778;2.308;2024-02-16T09:18:49;100708.99;;;19.09;39.91
62237;BME280;69163;48.778;2.308;2024-02-16T09:21:14;100715.62;;;19.09;40.21
62237;BME280;69163;48.778;2.308;2024-02-16T09:23:40;100719.93;;;19.18;39.91
62237;BME280;69163;48.778;2.308;2024-02-16T09:26:05;100722.34;;;19.29;39.77
62237;BME280;69163;48.778;2.308;2024-02-16T09:28:29;100728.18;;;19.10;39.60
62237;BME280;69163;48.778;2.308;2024-02-16T09:30:55;100731.82;;;19.40;39.49
62237;BME280;69163;48.778;2.308;2024-02-16T09:33:20;100737.77;;;19.37;39.56
62237;BME280;69163;48.778;2.308;2024-02-16T09:35:46;100741.79;;;19.31;39.53
62237;BME280;69163;48.778;2.308;2024-02-16T09:38:12;100747.66;;;19.50;39.53
62237;BME280;69163;48.778;2.308;2024-02-16T09:40:36;100746.83;;;19.20;39.57
62237;BME280;69163;48.778;2.308;2024-02-16T09:43:01;100749.96;;;19.18;39.64
62237;BME280;69163;48.778;2.308;2024-02-16T09:45:27;100749.28;;;19.15;39.57
62237;BME280;69163;48.778;2.308;2024-02-16T09:47:52;100758.67;;;18.91;39.64
62237;BME280;69163;48.778;2.308;2024-02-16T09:50:16;100761.43;;;18.96;39.58
62237;BME280;69163;48.778;2.308;2024-02-16T09:52:47;100767.49;;;19.17;39.64
62237;BME280;69163;48.778;2.308;2024-02-16T09:55:12;100772.38;;;19.19;39.62
62237;BME280;69163;48.778;2.308;2024-02-16T09:57:33;100778.01;;;19.25;39.47
62237;BME280;69163;48.778;2.308;2024-02-16T09:59:58;100783.00;;;19.18;39.46
62237;BME280;69163;48.778;2.308;2024-02-16T10:02:26;100791.76;;;18.96;39.95
62237;BME280;69163;48.778;2.308;2024-02-16T10:04:48;100793.30;;;18.77;40.35
62237;BME280;69163;48.778;2.308;2024-02-16T10:07:13;100799.36;;;18.62;40.15
62237;BME280;69163;48.778;2.308;2024-02-16T10:09:38;100801.45;;;18.99;39.98
62237;BME280;69163;48.778;2.308;2024-02-16T10:12:06;100801.50;;;19.24;39.93
62237;BME280;69163;48.778;2.308;2024-02-16T10:14:29;100805.73;;;19.30;39.82
62237;BME280;69163;48.778;2.308;2024-02-16T10:17:00;100812.21;;;19.10;39.70
62237;BME280;69163;48.778;2.308;2024-02-16T10:19:20;100810.83;;;19.08;39.67
62237;BME280;69163;48.778;2.308;2024-02-16T10:21:45;100817.21;;;19.08;39.63
62237;BME280;69163;48.778;2.308;2024-02-16T10:24:11;100823.05;;;18.82;39.61
62237;BME280;69163;48.778;2.308;2024-02-16T10:26:37;100826.86;;;19.07;39.59
62237;BME280;69163;48.778;2.308;2024-02-16T10:29:01;100831.17;;;19.27;39.61
62237;BME280;69163;48.778;2.308;2024-02-16T10:31:26;100842.93;;;19.03;39.55
62237;BME280;69163;48.778;2.308;2024-02-16T10:33:52;100851.87;;;19.29;39.52
62237;BME280;69163;48.778;2.308;2024-02-16T10:36:16;100854.50;;;19.08;39.44
62237;BME280;69163;48.778;2.308;2024-02-16T10:38:42;100859.97;;;19.28;39.45
62237;BME280;69163;48.778;2.308;2024-02-16T10:41:06;100868.86;;;19.04;39.37
62237;BME280;69163;48.778;2.308;2024-02-16T10:43:32;100874.23;;;19.04;39.41
62237;BME280;69163;48.778;2.308;2024-02-16T10:45:57;100877.20;;;19.28;39.35
62237;BME280;69163;48.778;2.308;2024-02-16T10:48:22;100880.62;;;19.04;39.32
62237;BME280;69163;48.778;2.308;2024-02-16T10:50:48;100889.42;;;19.33;39.22
62237;BME280;69163;48.778;2.308;2024-02-16T10:53:18;100890.49;;;19.11;39.17
62237;BME280;69163;48.778;2.308;2024-02-16T10:55:38;100897.06;;;19.18;39.04
62237;BME280;69163;48.778;2.308;2024-02-16T10:58:06;100901.63;;;19.13;39.04
62237;BME280;69163;48.778;2.308;2024-02-16T11:00:28;100906.01;;;18.89;39.02
62237;BME280;69163;48.778;2.308;2024-02-16T11:02:56;100912.00;;;19.12;38.99
62237;BME280;69163;48.778;2.308;2024-02-16T11:05:19;100911.08;;;19.61;38.93
62237;BME280;69163;48.778;2.308;2024-02-16T11:07:44;100913.20;;;19.12;38.92
62237;BME280;69163;48.778;2.308;2024-02-16T11:10:12;100916.46;;;19.14;38.85
62237;BME280;69163;48.778;2.308;2024-02-16T11:12:35;100925.37;;;19.13;38.81
62237;BME280;69163;48.778;2.308;2024-02-16T11:15:00;100918.96;;;19.14;38.73
62237;BME280;69163;48.778;2.308;2024-02-16T11:17:25;100929.34;;;18.90;38.75
62237;BME280;69163;48.778;2.308;2024-02-16T11:19:50;100935.89;;;19.15;38.66
62237;BME280;69163;48.778;2.308;2024-02-16T11:22:16;100941.81;;;19.12;38.70
62237;BME280;69163;48.778;2.308;2024-02-16T11:24:44;100947.72;;;19.14;38.62
62237;BME280;69163;48.778;2.308;2024-02-16T11:27:08;100951.93;;;19.14;38.62
62237;BME280;69163;48.778;2.308;2024-02-16T11:29:34;100954.04;;;19.09;38.65
62237;BME280;69163;48.778;2.308;2024-02-16T11:31:57;100953.58;;;19.10;38.62
62237;BME280;69163;48.778;2.308;2024-02-16T11:34:22;100959.68;;;19.15;38.51
62237;BME280;69163;48.778;2.308;2024-02-16T11:36:47;100960.07;;;19.08;38.59
62237;BME280;69163;48.778;2.308;2024-02-16T11:39:13;100964.43;;;19.09;38.50
62237;BME280;69163;48.778;2.308;2024-02-16T11:41:37;100967.07;;;19.35;38.47
62237;BME280;69163;48.778;2.308;2024-02-16T11:44:04;100966.61;;;19.05;38.47
62237;BME280;69163;48.778;2.308;2024-02-16T11:46:28;100968.10;;;19.10;38.43
62237;BME280;69163;48.778;2.308;2024-02-16T11:48:53;100967.49;;;19.08;38.41
62237;BME280;69163;48.778;2.308;2024-02-16T11:51:19;100976.49;;;19.10;38.36
62237;BME280;69163;48.778;2.308;2024-02-16T11:53:44;100981.55;;;18.87;38.31
62237;BME280;69163;48.778;2.308;2024-02-16T11:56:08;100987.76;;;19.14;38.20
62237;BME280;69163;48.778;2.308;2024-02-16T11:58:34;100988.41;;;19.11;38.21
62237;BME280;69163;48.778;2.308;2024-02-16T12:00:59;100993.04;;;19.11;38.17
62237;BME280;69163;48.778;2.308;2024-02-16T12:03:26;100993.00;;;19.09;38.19
62237;BME280;69163;48.778;2.308;2024-02-16T12:05:52;100998.07;;;19.06;38.08
62237;BME280;69163;48.778;2.308;2024-02-16T12:08:15;100994.43;;;19.06;38.15
62237;BME280;69163;48.778;2.308;2024-02-16T12:10:42;100990.83;;;19.07;38.15
62237;BME280;69163;48.778;2.308;2024-02-16T12:13:06;100995.01;;;19.12;38.05
62237;BME280;69163;48.778;2.308;2024-02-16T12:15:31;100996.59;;;19.14;38.01
62237;BME280;69163;48.778;2.308;2024-02-16T12:18:00;100998.99;;;19.39;37.90
62237;BME280;69163;48.778;2.308;2024-02-16T12:20:21;100995.34;;;19.19;37.82
62237;BME280;69163;48.778;2.308;2024-02-16T12:22:47;100998.23;;;19.14;37.86
62237;BME280;69163;48.778;2.308;2024-02-16T12:25:12;101001.35;;;19.08;37.92
62237;BME280;69163;48.778;2.308;2024-02-16T12:27:38;101005.19;;;19.09;37.87
62237;BME280;69163;48.778;2.308;2024-02-16T12:30:03;100998.00;;;19.11;37.82
62237;BME280;69163;48.778;2.308;2024-02-16T12:32:27;101002.24;;;19.05;37.87
62237;BME280;69163;48.778;2.308;2024-02-16T12:34:53;101001.28;;;19.05;37.85
62237;BME280;69163;48.778;2.308;2024-02-16T12:37:18;101000.85;;;19.05;37.85
62237;BME280;69163;48.778;2.308;2024-02-16T12:39:43;101004.59;;;18.85;37.75